Time;durP1;ratioP1;P1;durP2;ratioP2;P2;SDS_P1;SDS_P2;PMS_P1;PMS_P2;Temp;Humidity;BMP_temperature;BMP_pressure;BME280_temperature;BME280_humidity;BME280_pressure;Samples;Min_cycle;Max_cycle;Signal;HPM_P1;HPM_P2
2023/12/21 00:01:39;;;;;;;2.08;0.80;;;6.70;85.10;;;;;;5051519;28;20426;-66
2023/12/21 00:04:06;;;;;;;4.30;0.95;;;6.70;85.00;;;;;;5050828;28;20025;-67
2023/12/21 00:06:32;;;;;;;3.40;0.88;;;6.70;84.70;;;;;;5051306;28;20044;-67
2023/12/21 00:08:58;;;;;;;1.17;0.82;;;6.70;84.70;;;;;;5050562;28;20427;-67
2023/12/21 00:11:23;;;;;;;2.70;0.90;;;6.70;84.80;;;;;;5051244;28;20029;-67
2023/12/21 00:13:49;;;;;;;1.20;0.77;;;6.70;84.50;;;;;;5051535;28;20428;-67
2023/12/21 00:16:16;;;;;;;3.15;1.10;;;6.70;84.50;;;;;;5050977;28;20056;-67
2023/12/21 00:18:42;;;;;;;1.95;1.00;;;6.80;84.50;;;;;;5050966;28;20432;-67
2023/12/21 00:21:07;;;;;;;2.60;0.98;;;6.70;84.50;;;;;;5050923;28;20072;-67
2023/12/21 00:23:33;;;;;;;2.00;0.80;;;6.80;84.60;;;;;;5051184;28;20025;-67
2023/12/21 00:26:00;;;;;;;2.58;0.82;;;6.80;84.60;;;;;;5050874;28;20055;-67
2023/12/21 00:28:25;;;;;;;2.83;0.70;;;6.70;84.50;;;;;;5051078;28;20025;-67
2023/12/21 00:30:51;;;;;;;3.38;1.10;;;6.70;84.70;;;;;;5051481;28;20086;-67
2023/12/21 00:33:16;;;;;;;2.00;0.80;;;6.80;84.80;;;;;;5050758;28;20025;-66
2023/12/21 00:35:42;;;;;;;3.33;0.95;;;6.80;85.50;;;;;;5051314;28;20412;-66
2023/12/21 00:38:08;;;;;;;2.10;0.88;;;6.80;85.00;;;;;;5050469;28;20131;-66
2023/12/21 00:40:33;;;;;;;2.05;0.85;;;6.80;85.00;;;;;;5051177;28;20048;-68
2023/12/21 00:42:59;;;;;;;3.13;1.00;;;6.80;85.20;;;;;;5050470;28;20033;-68
2023/12/21 00:45:25;;;;;;;1.90;0.70;;;6.80;85.20;;;;;;5051037;28;20044;-66
2023/12/21 00:47:50;;;;;;;2.50;0.75;;;6.80;85.30;;;;;;5051160;28;20030;-67
2023/12/21 00:50:16;;;;;;;2.97;0.90;;;6.80;85.30;;;;;;5050669;28;20893;-67
2023/12/21 00:52:42;;;;;;;2.22;0.80;;;6.80;85.30;;;;;;5052169;28;20433;-67
2023/12/21 00:55:08;;;;;;;1.88;0.80;;;6.80;85.20;;;;;;5054381;28;20411;-67
2023/12/21 00:57:33;;;;;;;3.15;0.80;;;6.80;85.40;;;;;;5054705;28;20056;-67
2023/12/21 00:59:59;;;;;;;1.83;0.73;;;6.80;85.30;;;;;;5053754;28;20049;-68
2023/12/21 01:02:25;;;;;;;2.05;1.08;;;6.80;85.30;;;;;;5054841;28;20121;-68
2023/12/21 01:04:51;;;;;;;2.45;0.70;;;6.80;85.40;;;;;;5072083;28;20025;-67
2023/12/21 01:07:16;;;;;;;2.15;1.05;;;6.80;85.60;;;;;;5074150;28;20115;-67
2023/12/21 01:09:42;;;;;;;1.80;0.95;;;6.80;85.60;;;;;;5074075;28;20028;-68
2023/12/21 01:12:07;;;;;;;0.80;0.70;;;6.80;85.80;;;;;;5073716;28;20050;-67
2023/12/21 01:14:33;;;;;;;2.50;0.90;;;6.70;86.00;;;;;;5074369;28;20484;-67
2023/12/21 01:16:59;;;;;;;1.67;0.90;;;6.70;86.20;;;;;;5073999;28;20029;-68
2023/12/21 01:19:26;;;;;;;1.38;0.70;;;6.70;86.50;;;;;;5074100;28;20421;-68
2023/12/21 01:21:51;;;;;;;3.25;0.93;;;6.70;86.80;;;;;;5074300;28;20028;-68
2023/12/21 01:24:17;;;;;;;2.10;1.02;;;6.60;87.00;;;;;;5073559;28;20060;-68
2023/12/21 01:26:42;;;;;;;2.03;0.85;;;6.60;87.10;;;;;;5074170;28;20028;-67
2023/12/21 01:29:08;;;;;;;1.70;0.90;;;6.60;87.40;;;;;;5073705;28;20487;-66
2023/12/21 01:31:33;;;;;;;1.33;0.80;;;6.60;87.50;;;;;;5074109;28;20035;-67
2023/12/21 01:34:01;;;;;;;1.15;0.90;;;6.60;87.70;;;;;;5073912;28;20021;-67
2023/12/21 01:36:27;;;;;;;3.97;1.15;;;6.60;87.80;;;;;;5074003;28;20418;-67
2023/12/21 01:39:11;;;;;;;2.88;0.90;;;6.60;87.90;;;;;;5073829;28;20473;-67
2023/12/21 01:41:36;;;;;;;2.05;1.05;;;6.60;88.10;;;;;;5074043;28;20111;-67
2023/12/21 01:44:02;;;;;;;3.08;0.80;;;6.60;88.00;;;;;;5073453;28;20112;-67
2023/12/21 01:46:28;;;;;;;2.17;0.85;;;6.60;88.30;;;;;;5059136;28;20533;-67
2023/12/21 01:48:54;;;;;;;2.00;0.90;;;6.60;88.40;;;;;;5053330;28;20112;-68
2023/12/21 01:51:20;;;;;;;5.35;0.90;;;6.60;88.50;;;;;;5053259;28;20116;-68
2023/12/21 01:53:47;;;;;;;3.17;0.80;;;6.60;88.50;;;;;;5053595;28;20029;-67
2023/12/21 01:56:13;;;;;;;3.00;0.80;;;6.60;88.30;;;;;;5052941;28;20033;-68
2023/12/21 01:58:39;;;;;;;2.22;0.93;;;6.60;88.40;;;;;;5053419;28;20053;-67
2023/12/21 02:01:06;;;;;;;2.05;0.70;;;6.60;88.40;;;;;;5053181;28;20029;-67
2023/12/21 02:03:32;;;;;;;1.58;0.82;;;6.60;88.30;;;;;;5052789;28;20184;-67
2023/12/21 02:05:59;;;;;;;1.73;1.10;;;6.60;88.00;;;;;;5053131;28;20133;-67
2023/12/21 02:08:25;;;;;;;1.05;0.70;;;6.60;87.80;;;;;;5052897;28;20048;-67
2023/12/21 02:10:56;;;;;;;0.85;0.70;;;6.60;87.50;;;;;;5053409;28;20433;-67
2023/12/21 02:13:22;;;;;;;2.45;0.60;;;6.70;87.30;;;;;;5052603;28;20025;-67
2023/12/21 02:15:48;;;;;;;2.03;0.70;;;6.70;87.00;;;;;;5052785;28;20025;-68
2023/12/21 02:18:15;;;;;;;1.45;0.90;;;6.70;87.00;;;;;;5052344;28;20142;-68
2023/12/21 02:20:43;;;;;;;1.90;0.85;;;6.70;87.00;;;;;;5053151;28;20032;-67
2023/12/21 02:23:11;;;;;;;1.60;0.80;;;6.70;86.90;;;;;;5052745;28;20025;-66
2023/12/21 02:25:37;;;;;;;2.40;0.82;;;6.70;86.50;;;;;;5053165;28;20048;-67
2023/12/21 02:28:03;;;;;;;1.30;0.73;;;6.70;86.30;;;;;;5052882;28;20118;-66
2023/12/21 02:30:28;;;;;;;1.40;0.80;;;6.70;86.10;;;;;;5052562;28;20036;-67
2023/12/21 02:32:54;;;;;;;4.32;0.80;;;6.70;85.40;;;;;;5052536;28;20163;-67
2023/12/21 02:35:19;;;;;;;2.28;0.60;;;6.70;85.40;;;;;;5052400;28;20048;-67
2023/12/21 02:37:45;;;;;;;1.23;0.68;;;6.70;85.50;;;;;;5052517;28;20036;-66
2023/12/21 02:40:11;;;;;;;2.00;0.70;;;6.70;85.40;;;;;;5052301;28;20092;-66
2023/12/21 02:42:37;;;;;;;3.78;0.77;;;6.70;85.40;;;;;;5052649;28;20044;-67
2023/12/21 02:45:03;;;;;;;2.28;0.88;;;6.70;85.30;;;;;;5052619;28;20129;-66
2023/12/21 02:47:28;;;;;;;1.65;0.90;;;6.70;84.90;;;;;;5052065;28;20342;-67
2023/12/21 02:49:54;;;;;;;1.95;1.23;;;6.70;84.70;;;;;;5052419;28;20450;-67
2023/12/21 02:52:19;;;;;;;3.05;0.65;;;6.70;84.60;;;;;;5051721;28;20087;-67
2023/12/21 02:54:45;;;;;;;1.10;0.70;;;6.70;84.80;;;;;;5052094;28;20060;-67
2023/12/21 02:57:11;;;;;;;2.30;0.93;;;6.80;84.20;;;;;;5050684;28;20025;-67
2023/12/21 02:59:36;;;;;;;1.08;0.73;;;6.80;83.70;;;;;;5052042;28;20071;-67
2023/12/21 03:02:02;;;;;;;2.28;0.70;;;6.80;83.80;;;;;;5052282;28;20521;-67
2023/12/21 03:04:28;;;;;;;2.35;0.90;;;6.80;83.40;;;;;;5051775;28;20385;-67
2023/12/21 03:06:53;;;;;;;2.58;0.80;;;6.80;83.20;;;;;;5052198;28;20457;-67
2023/12/21 03:09:19;;;;;;;2.63;0.80;;;6.80;83.00;;;;;;5051586;28;20163;-67
2023/12/21 03:11:45;;;;;;;2.22;0.85;;;6.80;83.10;;;;;;5057181;28;20035;-67
2023/12/21 03:14:10;;;;;;;1.48;0.65;;;6.80;83.40;;;;;;5071525;28;20408;-67
2023/12/21 03:16:36;;;;;;;5.45;0.68;;;6.90;82.90;;;;;;5071350;28;20034;-67
2023/12/21 03:19:02;;;;;;;1.65;0.75;;;6.90;82.90;;;;;;5071999;28;20036;-67
2023/12/21 03:21:27;;;;;;;1.98;0.73;;;6.90;82.50;;;;;;5070259;28;20028;-67
2023/12/21 03:23:53;;;;;;;4.35;0.68;;;6.90;82.40;;;;;;5071928;28;20035;-67
2023/12/21 03:26:18;;;;;;;0.77;0.50;;;6.90;82.20;;;;;;5071516;28;20426;-67
2023/12/21 03:28:45;;;;;;;2.40;0.70;;;6.90;82.00;;;;;;5071754;28;20411;-67
2023/12/21 03:31:11;;;;;;;1.15;0.60;;;7.00;82.00;;;;;;5071478;28;20497;-67
2023/12/21 03:33:37;;;;;;;1.40;0.70;;;7.00;81.80;;;;;;5072122;28;20093;-67
2023/12/21 03:36:03;;;;;;;0.98;0.60;;;7.00;81.70;;;;;;5067390;28;20481;-67
2023/12/21 03:38:29;;;;;;;0.60;0.50;;;6.90;81.70;;;;;;5050961;28;20748;-67
2023/12/21 03:40:54;;;;;;;1.38;0.50;;;7.00;81.60;;;;;;5051430;28;20126;-67
2023/12/21 03:43:20;;;;;;;1.40;0.60;;;7.00;81.50;;;;;;5050923;28;20058;-68
2023/12/21 03:45:46;;;;;;;0.98;0.60;;;7.00;81.50;;;;;;5051673;28;20033;-67
2023/12/21 03:48:11;;;;;;;1.65;0.60;;;7.00;81.30;;;;;;5051204;28;20029;-68
2023/12/21 03:50:37;;;;;;;3.08;0.70;;;7.00;81.40;;;;;;5051305;28;20496;-67
2023/12/21 03:53:03;;;;;;;1.98;0.60;;;7.00;81.60;;;;;;5051612;28;20074;-67
2023/12/21 03:55:29;;;;;;;1.75;0.70;;;7.10;81.50;;;;;;5051180;28;20048;-67
2023/12/21 03:57:56;;;;;;;0.82;0.63;;;7.10;81.50;;;;;;5051587;28;20122;-67
2023/12/21 04:00:22;;;;;;;2.22;1.00;;;7.10;81.60;;;;;;5050588;28;20063;-68
2023/12/21 04:02:48;;;;;;;1.30;0.68;;;7.10;81.60;;;;;;5051684;28;20118;-68
2023/12/21 04:05:14;;;;;;;1.23;0.77;;;7.10;81.50;;;;;;5050876;28;20064;-68
2023/12/21 04:07:39;;;;;;;2.30;0.60;;;7.10;81.60;;;;;;5051736;28;20461;-67
2023/12/21 04:10:05;;;;;;;0.50;0.50;;;7.10;81.50;;;;;;5050154;28;20036;-67
2023/12/21 04:12:31;;;;;;;1.83;0.80;;;7.10;81.50;;;;;;5051272;28;20115;-67
2023/12/21 04:14:57;;;;;;;0.45;0.43;;;7.10;81.50;;;;;;5051328;28;20052;-67
2023/12/21 04:17:22;;;;;;;2.08;0.70;;;7.10;81.60;;;;;;5050719;28;20033;-67
2023/12/21 04:19:48;;;;;;;1.52;0.70;;;7.10;81.70;;;;;;5050961;28;20021;-66
2023/12/21 04:22:14;;;;;;;1.77;0.60;;;7.10;81.60;;;;;;5050898;28;20102;-66
2023/12/21 04:24:40;;;;;;;1.42;0.60;;;7.10;81.70;;;;;;5051467;28;20021;-67
2023/12/21 04:27:06;;;;;;;0.77;0.50;;;7.10;81.80;;;;;;5052074;28;20045;-67
2023/12/21 04:29:32;;;;;;;1.05;0.50;;;7.10;82.00;;;;;;5054792;28;20079;-68
2023/12/21 04:31:57;;;;;;;1.90;0.68;;;7.10;82.10;;;;;;5054919;28;20029;-68
2023/12/21 04:34:23;;;;;;;0.60;0.60;;;7.10;82.20;;;;;;5054482;28;20178;-67
2023/12/21 04:36:49;;;;;;;0.70;0.50;;;7.20;82.40;;;;;;5055104;28;20025;-67
2023/12/21 04:39:14;;;;;;;2.85;0.68;;;7.20;82.60;;;;;;5054622;28;20029;-67
2023/12/21 04:41:40;;;;;;;0.73;0.60;;;7.20;82.60;;;;;;5055374;28;20029;-67
2023/12/21 04:44:06;;;;;;;1.52;0.82;;;7.20;82.70;;;;;;5054924;28;20060;-68
2023/12/21 04:46:32;;;;;;;1.63;0.60;;;7.20;82.80;;;;;;5054451;28;20029;-66
2023/12/21 04:48:58;;;;;;;1.85;0.60;;;7.20;83.00;;;;;;5054870;28;20036;-66
2023/12/21 04:51:24;;;;;;;1.13;0.70;;;7.20;83.00;;;;;;5054391;28;20028;-67
2023/12/21 04:53:49;;;;;;;0.70;0.50;;;7.20;83.00;;;;;;5054643;28;20142;-67
2023/12/21 04:56:15;;;;;;;1.38;0.68;;;7.20;83.20;;;;;;5054300;28;20025;-69
2023/12/21 04:58:42;;;;;;;1.08;0.68;;;7.30;83.20;;;;;;5054520;28;20080;-67
2023/12/21 05:01:08;;;;;;;0.93;0.68;;;7.30;83.20;;;;;;5054529;28;20108;-67
2023/12/21 05:03:34;;;;;;;0.65;0.65;;;7.30;83.30;;;;;;5054162;28;20052;-67
2023/12/21 05:06:00;;;;;;;1.55;0.77;;;7.30;83.40;;;;;;5054334;28;20102;-68
2023/12/21 05:08:26;;;;;;;1.67;0.70;;;7.30;83.60;;;;;;5053989;28;20138;-68
2023/12/21 05:10:52;;;;;;;1.40;0.60;;;7.30;83.70;;;;;;5054625;28;20124;-68
2023/12/21 05:13:18;;;;;;;2.20;0.60;;;7.30;83.80;;;;;;5054111;28;20104;-68
2023/12/21 05:15:44;;;;;;;2.80;0.60;;;7.30;83.90;;;;;;5054584;28;20401;-67
2023/12/21 05:18:09;;;;;;;1.17;0.40;;;7.30;84.10;;;;;;5054392;28;20033;-67
2023/12/21 05:20:35;;;;;;;0.85;0.52;;;7.30;84.20;;;;;;5065766;28;20030;-66
2023/12/21 05:23:01;;;;;;;0.70;0.60;;;7.40;84.40;;;;;;5074531;28;20028;-68
2023/12/21 05:25:26;;;;;;;0.98;0.55;;;7.40;84.50;;;;;;5073669;28;20028;-68
2023/12/21 05:27:52;;;;;;;0.52;0.52;;;7.40;84.40;;;;;;5074321;28;20032;-66
2023/12/21 05:30:18;;;;;;;1.42;0.70;;;7.40;84.50;;;;;;5073554;28;20119;-67
2023/12/21 05:32:44;;;;;;;0.50;0.50;;;7.50;84.70;;;;;;5073670;28;20175;-66
2023/12/21 05:35:11;;;;;;;2.28;0.60;;;7.50;84.70;;;;;;5068023;28;20028;-67
2023/12/21 05:37:36;;;;;;;1.67;0.50;;;7.50;84.60;;;;;;5053093;28;20338;-68
2023/12/21 05:40:03;;;;;;;1.05;0.45;;;7.50;84.70;;;;;;5053365;28;20036;-67
2023/12/21 05:42:28;;;;;;;0.93;0.50;;;7.50;84.90;;;;;;5053285;28;20033;-68
2023/12/21 05:44:54;;;;;;;1.60;0.50;;;7.60;85.00;;;;;;5053753;28;20051;-67
2023/12/21 05:47:20;;;;;;;1.58;0.50;;;7.60;85.00;;;;;;5053624;28;20025;-68
2023/12/21 05:49:46;;;;;;;0.60;0.60;;;7.70;85.10;;;;;;5053511;28;20033;-67
2023/12/21 05:52:12;;;;;;;0.30;0.30;;;7.60;85.10;;;;;;5053455;28;20037;-68
2023/12/21 05:54:38;;;;;;;1.63;0.40;;;7.60;85.30;;;;;;5053066;28;20048;-68
2023/12/21 05:57:04;;;;;;;0.73;0.60;;;7.60;85.40;;;;;;5053521;28;20328;-68
2023/12/21 05:59:30;;;;;;;0.55;0.40;;;7.70;86.10;;;;;;5052900;28;20107;-68
2023/12/21 06:01:55;;;;;;;0.73;0.45;;;7.70;85.60;;;;;;5053590;28;20435;-68
2023/12/21 06:04:21;;;;;;;0.60;0.50;;;7.70;85.70;;;;;;5052913;28;20032;-67
2023/12/21 06:06:47;;;;;;;0.70;0.50;;;7.70;85.80;;;;;;5053689;28;20169;-67
2023/12/21 06:09:13;;;;;;;1.45;0.50;;;7.80;85.90;;;;;;5053280;28;20025;-70
2023/12/21 06:11:39;;;;;;;0.55;0.43;;;7.80;85.90;;;;;;5052002;28;20037;-67
2023/12/21 06:14:05;;;;;;;0.73;0.35;;;7.90;85.90;;;;;;5052800;28;20398;-66
2023/12/21 06:16:30;;;;;;;0.55;0.40;;;7.90;85.70;;;;;;5052659;28;20025;-66
2023/12/21 06:18:56;;;;;;;0.65;0.45;;;8.00;85.70;;;;;;5052975;28;20036;-66
2023/12/21 06:21:24;;;;;;;1.23;0.30;;;8.10;85.50;;;;;;5052858;28;20489;-67
2023/12/21 06:23:50;;;;;;;0.63;0.40;;;8.10;85.40;;;;;;5052604;28;20063;-67
2023/12/21 06:26:16;;;;;;;0.57;0.40;;;8.10;85.30;;;;;;5052476;28;20033;-67
2023/12/21 06:28:41;;;;;;;0.60;0.40;;;8.20;85.40;;;;;;5032136;28;20041;-67
2023/12/21 06:31:08;;;;;;;0.25;0.20;;;8.20;85.40;;;;;;5033117;28;20034;-67
2023/12/21 06:33:34;;;;;;;0.40;0.30;;;8.20;85.60;;;;;;5032213;28;20025;-67
2023/12/21 06:36:00;;;;;;;0.30;0.30;;;8.20;85.50;;;;;;5032704;28;20379;-67
2023/12/21 06:38:25;;;;;;;0.50;0.30;;;8.20;85.60;;;;;;5032586;28;20026;-67
2023/12/21 06:40:51;;;;;;;0.95;0.47;;;8.20;85.90;;;;;;5032698;28;20466;-67
2023/12/21 06:43:17;;;;;;;0.30;0.30;;;8.30;86.30;;;;;;5032837;28;20112;-67
2023/12/21 06:45:42;;;;;;;0.60;0.50;;;8.30;86.80;;;;;;5032380;28;20021;-67
2023/12/21 06:48:08;;;;;;;1.27;1.17;;;8.30;87.60;;;;;;5032399;28;20101;-67
2023/12/21 06:50:34;;;;;;;0.85;0.50;;;8.30;87.20;;;;;;5031137;28;20049;-67
2023/12/21 06:52:59;;;;;;;0.95;0.35;;;8.30;87.40;;;;;;5032219;28;20048;-67
2023/12/21 06:55:25;;;;;;;0.75;0.43;;;8.30;87.70;;;;;;5032355;28;20083;-67
2023/12/21 06:57:50;;;;;;;0.88;0.73;;;8.30;88.00;;;;;;5032523;28;20052;-67
2023/12/21 07:00:17;;;;;;;0.50;0.43;;;8.30;88.20;;;;;;5032015;28;20069;-66
2023/12/21 07:02:43;;;;;;;0.30;0.30;;;8.30;88.10;;;;;;5032079;28;20152;-66
2023/12/21 07:05:09;;;;;;;0.95;0.50;;;8.30;88.40;;;;;;5032106;28;20143;-66
2023/12/21 07:07:34;;;;;;;0.63;0.40;;;8.30;88.60;;;;;;5031827;28;20489;-67
2023/12/21 07:10:00;;;;;;;0.45;0.45;;;8.30;88.90;;;;;;5032150;28;20443;-67
2023/12/21 07:12:27;;;;;;;1.77;0.73;;;8.30;89.50;;;;;;5031970;28;20029;-69
2023/12/21 07:14:53;;;;;;;1.00;0.60;;;8.30;90.10;;;;;;5032149;28;20068;-67
2023/12/21 07:17:19;;;;;;;0.63;0.40;;;8.30;90.30;;;;;;5032172;28;20060;-67
2023/12/21 07:19:45;;;;;;;1.08;0.70;;;8.20;90.40;;;;;;5032032;28;20374;-67
2023/12/21 07:22:10;;;;;;;0.65;0.50;;;8.20;90.50;;;;;;5032128;28;20116;-67
2023/12/21 07:24:37;;;;;;;0.60;0.50;;;8.20;90.60;;;;;;5031741;28;20060;-67
2023/12/21 07:27:03;;;;;;;1.25;0.50;;;8.20;90.60;;;;;;5050206;28;20062;-67
2023/12/21 07:29:29;;;;;;;0.75;0.40;;;8.20;90.60;;;;;;5071377;28;20032;-67
2023/12/21 07:31:54;;;;;;;2.30;0.63;;;8.20;90.70;;;;;;5071845;28;20514;-67
2023/12/21 07:34:20;;;;;;;0.70;0.60;;;8.20;90.70;;;;;;5072185;28;20025;-67
2023/12/21 07:36:46;;;;;;;1.02;0.52;;;8.20;90.70;;;;;;5071513;28;20029;-67
2023/12/21 07:39:11;;;;;;;1.30;0.40;;;8.20;90.80;;;;;;5052130;28;20099;-67
2023/12/21 07:41:37;;;;;;;0.60;0.40;;;8.30;90.90;;;;;;5051287;28;20028;-67
2023/12/21 07:44:03;;;;;;;1.00;0.47;;;8.30;90.90;;;;;;5051476;28;20382;-66
2023/12/21 07:46:29;;;;;;;0.80;0.60;;;8.30;91.10;;;;;;5051365;28;20026;-67
2023/12/21 07:48:54;;;;;;;0.60;0.50;;;8.30;91.00;;;;;;5051217;28;20028;-67
2023/12/21 07:51:20;;;;;;;2.08;0.40;;;8.30;90.90;;;;;;5051425;28;20036;-67
2023/12/21 07:53:46;;;;;;;0.57;0.50;;;8.40;91.00;;;;;;5051257;28;20025;-67
2023/12/21 07:56:11;;;;;;;1.63;0.40;;;8.40;91.00;;;;;;5051615;28;20025;-67
2023/12/21 07:58:37;;;;;;;0.65;0.40;;;8.40;91.00;;;;;;5051041;28;20052;-68
2023/12/21 08:01:03;;;;;;;0.93;0.60;;;8.40;91.00;;;;;;5052188;28;20071;-66
2023/12/21 08:03:28;;;;;;;1.75;0.40;;;8.40;91.00;;;;;;5055507;28;20029;-68
2023/12/21 08:05:55;;;;;;;1.83;0.32;;;8.40;90.90;;;;;;5055336;28;20083;-67
2023/12/21 08:08:21;;;;;;;1.20;0.70;;;8.40;91.00;;;;;;5055575;28;20079;-67
2023/12/21 08:10:46;;;;;;;1.73;0.50;;;8.50;91.00;;;;;;5055099;28;20041;-68
2023/12/21 08:13:15;;;;;;;1.27;0.50;;;8.50;91.00;;;;;;5055667;28;20033;-67
2023/12/21 08:15:41;;;;;;;1.08;0.50;;;8.50;91.10;;;;;;5055081;28;20032;-68
2023/12/21 08:18:10;;;;;;;5.07;0.57;;;8.50;91.20;;;;;;5054973;28;20029;-67
2023/12/21 08:20:36;;;;;;;0.88;0.60;;;8.50;91.40;;;;;;5055011;28;20487;-68
2023/12/21 08:23:03;;;;;;;1.80;0.50;;;8.50;91.70;;;;;;5055359;28;20037;-67
2023/12/21 08:25:31;;;;;;;3.08;0.60;;;8.50;91.80;;;;;;5055495;28;20090;-67
2023/12/21 08:27:57;;;;;;;0.43;0.43;;;8.50;92.20;;;;;;5055306;28;20115;-67
2023/12/21 08:30:22;;;;;;;0.20;0.20;;;8.50;92.70;;;;;;5055203;28;20032;-67
2023/12/21 08:32:48;;;;;;;1.98;0.70;;;8.50;93.30;;;;;;5054702;28;20444;-67
2023/12/21 08:35:13;;;;;;;0.55;0.43;;;8.50;93.70;;;;;;5055102;28;20035;-67
2023/12/21 08:37:39;;;;;;;0.80;0.50;;;8.40;94.20;;;;;;5054740;28;20389;-67
2023/12/21 08:40:05;;;;;;;1.80;0.60;;;8.40;94.30;;;;;;5054715;28;20033;-67
2023/12/21 08:42:31;;;;;;;0.55;0.50;;;8.40;94.90;;;;;;5054980;28;20021;-67
2023/12/21 08:44:59;;;;;;;0.90;0.50;;;8.40;95.00;;;;;;5054696;28;20135;-67
2023/12/21 08:47:26;;;;;;;2.28;0.50;;;8.30;95.10;;;;;;5054864;28;20537;-67
2023/12/21 08:49:52;;;;;;;0.65;0.52;;;8.30;95.10;;;;;;5053275;28;20435;-68
2023/12/21 08:52:18;;;;;;;2.22;0.50;;;8.30;95.40;;;;;;5054669;28;20037;-68
2023/12/21 08:54:43;;;;;;;0.68;0.43;;;8.40;95.20;;;;;;5054545;28;20117;-68
2023/12/21 08:57:11;;;;;;;0.50;0.50;;;8.40;95.20;;;;;;5054767;28;20029;-67
2023/12/21 08:59:37;;;;;;;0.40;0.40;;;8.40;95.30;;;;;;5054236;28;20612;-67
2023/12/21 09:02:03;;;;;;;0.40;0.40;;;8.40;95.30;;;;;;5054530;28;20029;-67
2023/12/21 09:04:28;;;;;;;0.77;0.40;;;8.40;95.20;;;;;;5054382;28;20025;-67
2023/12/21 09:06:54;;;;;;;0.47;0.40;;;8.40;95.10;;;;;;5053965;28;20513;-66
2023/12/21 09:09:19;;;;;;;1.75;0.77;;;8.40;95.00;;;;;;5054297;28;20091;-67
2023/12/21 09:11:45;;;;;;;1.20;0.70;;;8.50;95.20;;;;;;5053722;28;20521;-67
2023/12/21 09:14:11;;;;;;;1.95;0.65;;;8.50;95.10;;;;;;5054262;28;20086;-68
2023/12/21 09:16:37;;;;;;;0.85;0.65;;;8.50;95.10;;;;;;5054099;28;20072;-67
2023/12/21 09:19:03;;;;;;;4.07;1.20;;;8.50;94.80;;;;;;5053923;28;20112;-67
2023/12/21 09:21:28;;;;;;;0.63;0.40;;;8.60;94.80;;;;;;5071243;28;20036;-67
2023/12/21 09:23:54;;;;;;;0.88;0.50;;;8.60;94.70;;;;;;5073796;28;20025;-67
2023/12/21 09:26:20;;;;;;;1.52;0.63;;;8.60;94.90;;;;;;5074192;28;20423;-67
2023/12/21 09:28:46;;;;;;;0.82;0.50;;;8.60;94.50;;;;;;5073228;28;20029;-67
2023/12/21 09:31:11;;;;;;;0.95;0.50;;;8.70;94.40;;;;;;5073978;28;20033;-67
2023/12/21 09:33:39;;;;;;;0.40;0.40;;;8.70;94.20;;;;;;5073417;28;20107;-67
2023/12/21 09:36:06;;;;;;;0.57;0.57;;;8.70;94.00;;;;;;5073930;28;20056;-67
2023/12/21 09:38:32;;;;;;;1.70;0.60;;;8.80;93.70;;;;;;5074189;28;20033;-67
2023/12/21 09:40:58;;;;;;;1.08;0.50;;;8.80;93.80;;;;;;5073596;28;20119;-67
2023/12/21 09:43:24;;;;;;;0.93;0.43;;;8.90;93.30;;;;;;5074058;28;20101;-67
2023/12/21 09:45:53;;;;;;;0.93;0.60;;;8.90;93.10;;;;;;5059895;28;20021;-68
2023/12/21 09:48:22;;;;;;;2.58;0.60;;;8.90;93.20;;;;;;5053899;28;20124;-68
2023/12/21 09:50:49;;;;;;;0.63;0.50;;;8.90;93.20;;;;;;5053244;28;20371;-68
2023/12/21 09:53:16;;;;;;;2.03;0.50;;;9.00;93.40;;;;;;5053707;28;20148;-67
2023/12/21 09:55:46;;;;;;;0.47;0.40;;;9.00;93.20;;;;;;5053389;28;20111;-67
2023/12/21 09:58:12;;;;;;;0.30;0.30;;;9.00;93.00;;;;;;5053527;28;20091;-67
2023/12/21 10:00:39;;;;;;;0.73;0.60;;;9.00;92.90;;;;;;5053642;28;20049;-69
2023/12/21 10:03:05;;;;;;;1.27;0.60;;;9.00;93.10;;;;;;5053504;28;20022;-67
2023/12/21 10:05:34;;;;;;;2.40;1.00;;;9.00;93.00;;;;;;5052254;28;20378;-67
2023/12/21 10:08:01;;;;;;;0.60;0.55;;;9.00;93.00;;;;;;5053095;28;20029;-66
2023/12/21 10:10:27;;;;;;;2.50;0.75;;;9.00;93.20;;;;;;5053406;28;20025;-67
2023/12/21 10:12:52;;;;;;;0.68;0.50;;;9.10;93.20;;;;;;5052654;28;20028;-67
2023/12/21 10:15:19;;;;;;;3.60;0.73;;;9.10;93.00;;;;;;5052189;28;20385;-67
2023/12/21 10:17:44;;;;;;;2.10;0.70;;;9.20;92.90;;;;;;5052870;28;20033;-67
2023/12/21 10:20:13;;;;;;;0.68;0.47;;;9.20;92.90;;;;;;5053273;28;20458;-67
2023/12/21 10:22:40;;;;;;;2.85;0.68;;;9.20;92.60;;;;;;5053409;28;20086;-67
2023/12/21 10:25:08;;;;;;;0.80;0.68;;;9.30;92.30;;;;;;5051808;28;20036;-66
2023/12/21 10:27:34;;;;;;;2.20;1.05;;;9.30;92.30;;;;;;5052711;28;20366;-67
2023/12/21 10:30:01;;;;;;;1.88;0.77;;;9.30;91.80;;;;;;5052585;28;20804;-67
2023/12/21 10:32:26;;;;;;;3.22;1.45;;;9.30;91.40;;;;;;5053004;28;20362;-67
2023/12/21 10:34:58;;;;;;;1.70;1.20;;;9.40;91.50;;;;;;5052506;28;20040;-67
2023/12/21 10:37:24;;;;;;;1.02;0.63;;;9.40;91.50;;;;;;5053086;28;20476;-68
2023/12/21 10:39:51;;;;;;;1.75;0.80;;;9.40;91.30;;;;;;5052735;28;20112;-67
2023/12/21 10:42:17;;;;;;;1.50;1.00;;;9.40;91.20;;;;;;5052525;28;20025;-68
2023/12/21 10:44:48;;;;;;;1.33;0.68;;;9.50;91.20;;;;;;5051101;28;20032;-68
2023/12/21 10:47:16;;;;;;;1.57;0.80;;;9.50;90.90;;;;;;5052869;28;20020;-68
2023/12/21 10:49:43;;;;;;;0.32;0.30;;;9.50;90.50;;;;;;5052247;28;20873;-68
2023/12/21 10:52:13;;;;;;;0.40;0.40;;;9.60;90.20;;;;;;5052764;28;20033;-68
2023/12/21 10:54:42;;;;;;;0.65;0.47;;;9.60;90.10;;;;;;5052635;28;20036;-68
2023/12/21 10:57:08;;;;;;;1.20;0.60;;;9.60;89.80;;;;;;5052432;28;20028;-68
2023/12/21 10:59:35;;;;;;;0.77;0.57;;;9.70;89.80;;;;;;5052485;28;20131;-67
2023/12/21 11:02:02;;;;;;;0.50;0.45;;;9.70;89.50;;;;;;5052029;28;20093;-67
2023/12/21 11:04:28;;;;;;;1.00;0.60;;;9.70;89.10;;;;;;5052089;28;20028;-67
2023/12/21 11:06:54;;;;;;;0.95;0.60;;;9.80;88.90;;;;;;5051937;28;20357;-68
2023/12/21 11:09:22;;;;;;;0.70;0.65;;;9.80;88.60;;;;;;5052295;28;20025;-67
2023/12/21 11:11:48;;;;;;;0.50;0.40;;;9.80;88.10;;;;;;5051734;28;20059;-67
2023/12/21 11:14:14;;;;;;;0.65;0.52;;;9.90;88.00;;;;;;5051892;28;20514;-67
2023/12/21 11:16:50;;;;;;;0.65;0.50;;;9.90;87.60;;;;;;5052256;28;20032;-67
2023/12/21 11:19:21;;;;;;;3.13;0.60;;;9.90;87.10;;;;;;5052407;28;20058;-67
2023/12/21 11:21:48;;;;;;;0.60;0.50;;;10.00;86.90;;;;;;5060850;28;20065;-67
2023/12/21 11:24:23;;;;;;;0.98;0.52;;;10.00;86.60;;;;;;5071920;28;20082;-67
2023/12/21 11:26:50;;;;;;;2.00;0.40;;;10.10;86.40;;;;;;5071605;28;20032;-68
2023/12/21 11:29:24;;;;;;;3.05;0.40;;;10.10;86.20;;;;;;5072000;28;20507;-67
2023/12/21 11:31:49;;;;;;;0.85;0.65;;;10.10;86.00;;;;;;5071588;28;20075;-67
2023/12/21 11:34:21;;;;;;;1.30;0.50;;;10.10;85.90;;;;;;5071992;28;20020;-67
2023/12/21 11:36:49;;;;;;;1.10;0.60;;;10.20;85.90;;;;;;5071083;28;20047;-68
2023/12/21 11:39:19;;;;;;;1.08;0.40;;;10.20;85.80;;;;;;5071936;28;20036;-67
2023/12/21 11:41:59;;;;;;;0.90;0.57;;;10.20;84.90;;;;;;5071434;28;20039;-69
2023/12/21 11:44:37;;;;;;;0.70;0.50;;;10.30;85.10;;;;;;5071481;28;20350;-67
2023/12/21 11:47:07;;;;;;;1.20;0.60;;;10.30;84.80;;;;;;5071480;28;20033;-67
2023/12/21 11:49:32;;;;;;;0.55;0.50;;;10.30;84.90;;;;;;5071424;28;20064;-67
2023/12/21 11:51:59;;;;;;;0.90;0.60;;;10.30;84.80;;;;;;5071013;28;20121;-67
2023/12/21 11:54:25;;;;;;;0.82;0.50;;;10.30;84.70;;;;;;5056158;28;20032;-67
2023/12/21 11:56:53;;;;;;;0.40;0.40;;;10.20;84.80;;;;;;5051049;28;20033;-67
2023/12/21 11:59:28;;;;;;;0.80;0.63;;;10.20;84.90;;;;;;5051189;28;20083;-67
2023/12/21 12:01:53;;;;;;;0.85;0.60;;;10.20;85.40;;;;;;5051122;28;20123;-67
2023/12/21 12:04:19;;;;;;;0.60;0.60;;;10.20;85.40;;;;;;5051492;28;20108;-68
2023/12/21 12:06:49;;;;;;;0.68;0.55;;;10.20;85.50;;;;;;5051387;28;20032;-67
2023/12/21 12:09:17;;;;;;;0.80;0.70;;;10.20;85.90;;;;;;5051371;28;20021;-68
2023/12/21 12:11:42;;;;;;;0.77;0.60;;;10.10;85.90;;;;;;5051685;28;20037;-67
2023/12/21 12:14:11;;;;;;;2.65;0.80;;;10.20;85.90;;;;;;5051168;28;20040;-67
2023/12/21 12:16:37;;;;;;;0.82;0.63;;;10.10;86.00;;;;;;5051474;28;20071;-68
2023/12/21 12:19:02;;;;;;;1.27;0.55;;;10.10;86.00;;;;;;5051019;28;20444;-68
2023/12/21 12:21:29;;;;;;;0.65;0.57;;;10.10;86.00;;;;;;5051412;28;20368;-67
2023/12/21 12:23:55;;;;;;;2.50;0.73;;;10.10;86.00;;;;;;5050993;28;20021;-66
2023/12/21 12:26:21;;;;;;;1.60;1.05;;;10.10;85.80;;;;;;5051323;28;20032;-66
2023/12/21 12:28:51;;;;;;;1.13;0.63;;;10.10;85.80;;;;;;5050521;28;20048;-67
2023/12/21 12:31:17;;;;;;;0.85;0.60;;;10.10;86.00;;;;;;5050951;28;20132;-67
2023/12/21 12:33:43;;;;;;;0.40;0.40;;;10.10;85.50;;;;;;5051287;28;20028;-67
2023/12/21 12:36:09;;;;;;;1.70;0.80;;;10.20;85.40;;;;;;5051002;28;20028;-67
2023/12/21 12:38:35;;;;;;;1.85;0.93;;;10.20;85.50;;;;;;5051109;28;20045;-68
2023/12/21 12:41:01;;;;;;;2.28;0.75;;;10.20;85.50;;;;;;5050576;28;20398;-67
2023/12/21 12:43:30;;;;;;;2.90;0.60;;;10.30;85.00;;;;;;5051357;28;20428;-67
2023/12/21 12:45:58;;;;;;;3.20;0.50;;;10.30;84.70;;;;;;5050563;28;20485;-68
2023/12/21 12:48:24;;;;;;;1.23;0.47;;;10.30;84.50;;;;;;5052049;28;20040;-67
2023/12/21 12:50:51;;;;;;;2.63;0.70;;;10.30;84.30;;;;;;5054768;28;20078;-68